createdAt,value
2017-10-25T00:00:03.308Z,0
2017-10-25T00:01:03.914Z,0
2017-10-25T00:02:04.523Z,0
2017-10-25T00:03:05.130Z,0
2017-10-25T00:04:05.769Z,0
2017-10-25T00:05:06.377Z,0
2017-10-25T00:06:06.991Z,0
2017-10-25T00:07:07.594Z,0
2017-10-25T00:08:08.203Z,0
2017-10-25T00:09:08.813Z,0
2017-10-25T00:10:09.427Z,0
2017-10-25T00:11:10.035Z,0
2017-10-25T00:12:10.651Z,0
2017-10-25T00:13:11.287Z,0
2017-10-25T00:14:11.926Z,0
2017-10-25T00:15:12.536Z,0
2017-10-25T00:16:13.146Z,0
2017-10-25T00:17:13.762Z,0
2017-10-25T00:18:14.370Z,0
2017-10-25T00:19:14.977Z,0
2017-10-25T00:20:15.585Z,0
2017-10-25T00:21:16.195Z,0
2017-10-25T00:22:16.803Z,0
2017-10-25T00:23:17.412Z,0
2017-10-25T00:24:18.025Z,0
2017-10-25T00:25:18.664Z,0
2017-10-25T00:26:19.301Z,0
2017-10-25T00:27:19.912Z,0
2017-10-25T00:28:20.556Z,0
2017-10-25T00:29:21.162Z,0
2017-10-25T00:30:21.770Z,0
2017-10-25T00:31:22.378Z,0
2017-10-25T00:32:22.992Z,0
2017-10-25T00:33:23.599Z,0
2017-10-25T00:34:24.212Z,0
2017-10-25T00:35:24.823Z,0
2017-10-25T00:36:25.468Z,0
2017-10-25T00:37:26.124Z,0
2017-10-25T00:38:26.735Z,0
2017-10-25T00:39:27.345Z,0
2017-10-25T00:40:27.956Z,0
2017-10-25T00:41:28.565Z,0
2017-10-25T00:42:29.174Z,0
2017-10-25T00:43:29.785Z,0
2017-10-25T00:44:30.392Z,0
2017-10-25T00:45:31.011Z,0
2017-10-25T00:46:31.614Z,0
2017-10-25T00:47:32.228Z,0
2017-10-25T00:48:32.866Z,0
2017-10-25T00:49:33.483Z,0
2017-10-25T00:50:34.095Z,0
2017-10-25T00:51:34.734Z,0
2017-10-25T00:52:35.348Z,0
2017-10-25T00:53:35.961Z,0
2017-10-25T00:54:36.570Z,0
2017-10-25T00:55:37.176Z,0
2017-10-25T00:56:37.785Z,0
2017-10-25T00:57:38.399Z,0
2017-10-25T00:58:39.005Z,0
2017-10-25T00:59:39.651Z,0
2017-10-25T01:00:40.256Z,0
2017-10-25T01:01:40.871Z,0
2017-10-25T01:02:41.476Z,0
2017-10-25T01:03:42.083Z,0
2017-10-25T01:04:42.722Z,0
2017-10-25T01:05:43.331Z,0
2017-10-25T01:06:43.969Z,0
2017-10-25T01:07:44.578Z,0
2017-10-25T01:08:45.187Z,0
2017-10-25T01:09:45.796Z,0
2017-10-25T01:10:46.404Z,0
2017-10-25T01:11:47.018Z,0
2017-10-25T01:12:47.622Z,0
2017-10-25T01:13:48.261Z,0
2017-10-25T01:14:48.869Z,0
2017-10-25T01:15:49.488Z,0
2017-10-25T01:16:50.091Z,0
2017-10-25T01:17:50.708Z,0
2017-10-25T01:18:51.343Z,0
2017-10-25T01:19:51.949Z,0
2017-10-25T01:20:52.557Z,0
2017-10-25T01:21:53.168Z,0
2017-10-25T01:22:53.778Z,0
2017-10-25T01:23:54.387Z,0
2017-10-25T01:24:55.001Z,0
2017-10-25T01:25:55.613Z,0
2017-10-25T01:26:56.219Z,0
2017-10-25T01:27:56.829Z,0
2017-10-25T01:28:57.444Z,0
2017-10-25T01:29:58.057Z,0
2017-10-25T01:30:58.669Z,0
2017-10-25T01:31:59.278Z,0
2017-10-25T01:32:59.887Z,0
2017-10-25T01:34:00.494Z,0
2017-10-25T01:35:01.134Z,0
2017-10-25T01:36:01.745Z,0
2017-10-25T01:37:02.354Z,0
2017-10-25T01:38:02.993Z,0
2017-10-25T01:39:03.615Z,0
2017-10-25T01:40:04.215Z,0
2017-10-25T01:41:04.822Z,0
2017-10-25T01:42:05.437Z,0
2017-10-25T01:43:06.039Z,0
2017-10-25T01:44:06.654Z,0
2017-10-25T01:45:07.265Z,0
2017-10-25T01:46:07.877Z,0
2017-10-25T01:47:08.517Z,0
2017-10-25T01:48:09.125Z,0
2017-10-25T01:49:09.733Z,0
2017-10-25T01:50:10.343Z,0
2017-10-25T01:51:10.957Z,0
2017-10-25T01:52:11.566Z,0
2017-10-25T01:53:12.179Z,0
2017-10-25T01:54:12.790Z,0
2017-10-25T01:55:13.433Z,0
2017-10-25T01:56:14.045Z,0
2017-10-25T01:57:14.654Z,0
2017-10-25T01:58:15.264Z,0
2017-10-25T01:59:15.871Z,0
2017-10-25T02:00:16.479Z,0
2017-10-25T02:01:17.086Z,0
2017-10-25T02:02:17.694Z,0
2017-10-25T02:03:18.304Z,0
2017-10-25T02:04:18.915Z,0
2017-10-25T02:05:19.534Z,0
2017-10-25T02:06:20.171Z,0
2017-10-25T02:07:20.781Z,0
2017-10-25T02:08:21.390Z,0
2017-10-25T02:09:21.998Z,0
2017-10-25T02:10:22.607Z,0
2017-10-25T02:11:23.222Z,0
2017-10-25T02:12:23.833Z,0
2017-10-25T02:13:24.444Z,0
2017-10-25T02:14:25.049Z,0
2017-10-25T02:15:25.694Z,0
2017-10-25T02:16:26.312Z,0
2017-10-25T02:17:26.914Z,0
2017-10-25T02:18:27.555Z,0
2017-10-25T02:19:28.169Z,0
2017-10-25T02:20:28.775Z,0
2017-10-25T02:21:29.386Z,0
2017-10-25T02:22:29.997Z,0
2017-10-25T02:23:30.638Z,0
2017-10-25T02:24:31.249Z,0
2017-10-25T02:25:31.864Z,0
2017-10-25T02:26:32.470Z,0
2017-10-25T02:27:33.084Z,0
2017-10-25T02:28:33.728Z,0
2017-10-25T02:29:34.334Z,0
2017-10-25T02:30:34.950Z,0
2017-10-25T02:31:35.586Z,0
2017-10-25T02:32:36.194Z,0
2017-10-25T02:33:36.803Z,0
2017-10-25T02:34:37.412Z,0
2017-10-25T02:35:38.026Z,0
2017-10-25T02:36:38.640Z,0
2017-10-25T02:37:39.280Z,0
2017-10-25T02:38:39.885Z,0
2017-10-25T02:39:40.526Z,0
2017-10-25T02:40:41.134Z,0
2017-10-25T02:41:41.742Z,0
2017-10-25T02:42:42.351Z,0
2017-10-25T02:43:42.960Z,0
2017-10-25T02:44:43.568Z,0
2017-10-25T02:45:44.213Z,0
2017-10-25T02:46:44.817Z,0
2017-10-25T02:47:45.430Z,0
2017-10-25T02:48:46.045Z,0
2017-10-25T02:49:46.654Z,0
2017-10-25T02:50:47.259Z,0
2017-10-25T02:51:47.872Z,0
2017-10-25T02:52:48.484Z,0
2017-10-25T02:53:49.092Z,0
2017-10-25T02:54:49.701Z,0
2017-10-25T02:55:50.309Z,0
2017-10-25T02:56:50.917Z,0
2017-10-25T02:57:51.526Z,0
2017-10-25T02:58:52.137Z,0
2017-10-25T02:59:52.748Z,0
2017-10-25T03:00:53.387Z,0
2017-10-25T03:01:54.002Z,0
2017-10-25T03:02:54.620Z,0
2017-10-25T03:03:55.229Z,0
2017-10-25T03:04:55.838Z,0
2017-10-25T03:05:56.449Z,0
2017-10-25T03:06:57.057Z,0
2017-10-25T03:07:57.665Z,0
2017-10-25T03:08:58.275Z,0
2017-10-25T03:09:58.888Z,0
2017-10-25T03:10:59.495Z,0
2017-10-25T03:12:00.105Z,0
2017-10-25T03:13:00.750Z,0
2017-10-25T03:14:01.364Z,0
2017-10-25T03:15:01.972Z,0
2017-10-25T03:16:02.587Z,0
2017-10-25T03:17:03.229Z,0
2017-10-25T03:18:03.833Z,0
2017-10-25T03:19:04.442Z,0
2017-10-25T03:20:05.055Z,0
2017-10-25T03:21:05.669Z,0
2017-10-25T03:22:06.270Z,0
2017-10-25T03:23:06.878Z,0
2017-10-25T03:24:07.489Z,0
2017-10-25T03:25:08.096Z,0
2017-10-25T03:26:08.706Z,0
2017-10-25T03:27:09.318Z,0
2017-10-25T03:28:09.930Z,0
2017-10-25T03:29:10.537Z,0
2017-10-25T03:30:11.157Z,0
2017-10-25T03:31:11.754Z,0
2017-10-25T03:32:12.367Z,0
2017-10-25T03:33:12.975Z,0
2017-10-25T03:34:13.592Z,0
2017-10-25T03:35:14.228Z,0
2017-10-25T03:36:14.843Z,0
2017-10-25T03:37:15.450Z,0
2017-10-25T03:38:16.057Z,0
2017-10-25T03:39:16.667Z,0
2017-10-25T03:40:17.306Z,0
2017-10-25T03:41:17.916Z,0
2017-10-25T03:42:18.529Z,0
2017-10-25T03:43:19.135Z,0
2017-10-25T03:44:19.745Z,0
2017-10-25T03:45:20.352Z,0
2017-10-25T03:46:20.963Z,0
2017-10-25T03:47:21.573Z,0
2017-10-25T03:48:22.183Z,0
2017-10-25T03:49:22.793Z,0
2017-10-25T03:50:23.401Z,0
2017-10-25T03:51:24.018Z,0
2017-10-25T03:52:24.629Z,0
2017-10-25T03:53:25.236Z,0
2017-10-25T03:54:25.845Z,0
2017-10-25T03:55:26.454Z,0
2017-10-25T03:56:27.062Z,0
2017-10-25T03:57:27.677Z,0
2017-10-25T03:58:28.285Z,0
2017-10-25T03:59:28.900Z,0
2017-10-25T04:00:29.507Z,0
2017-10-25T04:01:30.116Z,0
2017-10-25T04:02:30.726Z,0
2017-10-25T04:03:31.337Z,0
2017-10-25T04:04:31.946Z,0
2017-10-25T04:05:32.552Z,0
2017-10-25T04:06:33.193Z,0
2017-10-25T04:07:33.804Z,0
2017-10-25T04:08:34.411Z,0
2017-10-25T04:09:35.030Z,0
2017-10-25T04:10:35.631Z,0
2017-10-25T04:11:36.241Z,0
2017-10-25T04:12:36.849Z,0
2017-10-25T04:13:37.465Z,0
2017-10-25T04:14:38.070Z,0
2017-10-25T04:15:38.681Z,0
2017-10-25T04:16:39.290Z,0
2017-10-25T04:17:39.898Z,0
2017-10-25T04:18:40.513Z,0
2017-10-25T04:19:41.152Z,0
2017-10-25T04:20:41.770Z,0
2017-10-25T04:21:42.402Z,0
2017-10-25T04:22:43.011Z,0
2017-10-25T04:23:43.626Z,0
2017-10-25T04:24:44.238Z,0
2017-10-25T04:25:44.843Z,0
2017-10-25T04:26:45.485Z,0
2017-10-25T04:27:46.097Z,0
2017-10-25T04:28:46.703Z,0
2017-10-25T04:29:47.312Z,0
2017-10-25T04:30:47.922Z,0
2017-10-25T04:31:48.534Z,0
2017-10-25T04:32:49.146Z,0
2017-10-25T04:33:49.759Z,0
2017-10-25T04:34:50.397Z,0
2017-10-25T04:35:51.013Z,0
2017-10-25T04:36:51.627Z,0
2017-10-25T04:37:52.234Z,0
2017-10-25T04:38:52.842Z,0
2017-10-25T04:39:53.456Z,0
2017-10-25T04:40:54.071Z,0
2017-10-25T04:41:54.677Z,0
2017-10-25T04:42:55.290Z,0
2017-10-25T04:43:55.929Z,0
2017-10-25T04:44:56.538Z,0
2017-10-25T04:45:57.180Z,0
2017-10-25T04:46:57.788Z,0
2017-10-25T04:47:58.402Z,0
2017-10-25T04:48:59.009Z,0
2017-10-25T04:49:59.630Z,0
2017-10-25T04:51:00.233Z,0
2017-10-25T04:52:00.845Z,0
2017-10-25T04:53:01.484Z,0
2017-10-25T04:54:02.101Z,0
2017-10-25T04:55:02.712Z,0
2017-10-25T04:56:03.321Z,0
2017-10-25T04:57:03.935Z,0
2017-10-25T04:58:04.540Z,0
2017-10-25T04:59:05.150Z,0
2017-10-25T05:00:05.759Z,0
2017-10-25T05:01:06.372Z,0
2017-10-25T05:02:06.977Z,0
2017-10-25T05:03:07.588Z,0
2017-10-25T05:04:08.199Z,0
2017-10-25T05:05:08.810Z,0
2017-10-25T05:06:09.419Z,0
2017-10-25T05:07:10.028Z,0
2017-10-25T05:08:10.639Z,0
2017-10-25T05:09:11.248Z,0
2017-10-25T05:10:11.858Z,0
2017-10-25T05:11:12.475Z,0
2017-10-25T05:12:13.080Z,0
2017-10-25T05:13:13.688Z,0
2017-10-25T05:14:14.302Z,0
2017-10-25T05:15:14.914Z,0
2017-10-25T05:16:15.538Z,0
2017-10-25T05:17:16.132Z,0
2017-10-25T05:18:16.741Z,0
2017-10-25T05:19:17.351Z,0
2017-10-25T05:20:17.965Z,0
2017-10-25T05:21:18.570Z,0
2017-10-25T05:22:19.185Z,0
2017-10-25T05:23:19.791Z,0
2017-10-25T05:24:20.399Z,0
2017-10-25T05:25:21.008Z,0
2017-10-25T05:26:21.618Z,0
2017-10-25T05:27:22.227Z,0
2017-10-25T05:28:22.845Z,0
2017-10-25T05:29:23.449Z,0
2017-10-25T05:30:24.079Z,0
2017-10-25T05:31:24.668Z,0
2017-10-25T05:32:25.278Z,0
2017-10-25T05:33:25.887Z,0
2017-10-25T05:34:26.496Z,0
2017-10-25T05:35:27.110Z,0
2017-10-25T05:36:27.723Z,0
2017-10-25T05:37:28.327Z,0
2017-10-25T05:38:28.939Z,0
2017-10-25T05:39:29.551Z,0
2017-10-25T05:40:30.169Z,0
2017-10-25T05:41:30.770Z,0
2017-10-25T05:42:31.385Z,0
2017-10-25T05:43:31.992Z,0
2017-10-25T05:44:32.606Z,0
2017-10-25T05:45:33.213Z,0
2017-10-25T05:46:33.822Z,0
2017-10-25T05:47:34.430Z,0
2017-10-25T05:48:35.038Z,0
2017-10-25T05:49:35.648Z,0
2017-10-25T05:50:36.288Z,0
2017-10-25T05:51:36.898Z,0
2017-10-25T05:52:37.506Z,0
2017-10-25T05:53:38.115Z,0
2017-10-25T05:54:38.730Z,4
2017-10-25T05:55:39.338Z,4
2017-10-25T05:56:39.947Z,0
2017-10-25T05:57:40.559Z,4
2017-10-25T05:58:41.167Z,4
2017-10-25T05:59:41.775Z,0
2017-10-25T06:00:42.393Z,4
2017-10-25T06:01:42.997Z,4
2017-10-25T06:02:43.604Z,4
2017-10-25T06:03:44.214Z,4
2017-10-25T06:04:44.822Z,4
2017-10-25T06:05:45.465Z,4
2017-10-25T06:06:46.072Z,8
2017-10-25T06:07:46.687Z,4
2017-10-25T06:08:47.293Z,4
2017-10-25T06:09:47.906Z,4
2017-10-25T06:10:48.516Z,4
2017-10-25T06:11:49.123Z,4
2017-10-25T06:12:49.742Z,8
2017-10-25T06:13:50.382Z,8
2017-10-25T06:14:50.991Z,8
2017-10-25T06:15:51.600Z,8
2017-10-25T06:16:52.215Z,8
2017-10-25T06:17:52.823Z,12
2017-10-25T06:18:53.441Z,12
2017-10-25T06:19:54.045Z,12
2017-10-25T06:20:54.656Z,12
2017-10-25T06:21:55.265Z,16
2017-10-25T06:22:55.878Z,12
2017-10-25T06:23:56.492Z,12
2017-10-25T06:24:57.102Z,16
2017-10-25T06:25:57.718Z,16
2017-10-25T06:26:58.330Z,16
2017-10-25T06:27:58.970Z,16
2017-10-25T06:28:59.581Z,20
2017-10-25T06:30:00.191Z,20
2017-10-25T06:31:00.809Z,20
2017-10-25T06:32:01.446Z,24
2017-10-25T06:33:02.056Z,28
2017-10-25T06:34:02.674Z,24
2017-10-25T06:35:03.284Z,32
2017-10-25T06:36:03.898Z,32
2017-10-25T06:37:04.546Z,32
2017-10-25T06:38:05.161Z,36
2017-10-25T06:39:05.775Z,36
2017-10-25T06:40:06.386Z,40
2017-10-25T06:41:07.019Z,40
2017-10-25T06:42:07.631Z,40
2017-10-25T06:43:08.242Z,40
2017-10-25T06:44:08.857Z,44
2017-10-25T06:45:09.469Z,48
2017-10-25T06:46:10.076Z,48
2017-10-25T06:47:10.693Z,48
2017-10-25T06:48:11.310Z,52
2017-10-25T06:49:11.924Z,52
2017-10-25T06:50:12.533Z,60
2017-10-25T06:51:13.141Z,60
2017-10-25T06:52:13.756Z,64
2017-10-25T06:53:14.363Z,72
2017-10-25T06:54:14.984Z,72
2017-10-25T06:55:15.589Z,76
2017-10-25T06:56:16.201Z,80
2017-10-25T06:57:16.812Z,80
2017-10-25T06:58:17.425Z,84
2017-10-25T06:59:18.036Z,88
2017-10-25T07:00:18.652Z,88
2017-10-25T07:01:19.266Z,92
2017-10-25T07:02:19.882Z,92
2017-10-25T07:03:20.489Z,92
2017-10-25T07:04:21.100Z,96
2017-10-25T07:05:21.712Z,96
2017-10-25T07:06:22.335Z,100
2017-10-25T07:07:22.946Z,100
2017-10-25T07:08:23.567Z,100
2017-10-25T07:09:24.209Z,96
2017-10-25T07:10:24.823Z,92
2017-10-25T07:11:25.434Z,92
2017-10-25T07:12:26.047Z,88
2017-10-25T07:13:26.658Z,84
2017-10-25T07:14:27.270Z,84
2017-10-25T07:15:27.886Z,84
2017-10-25T07:16:28.493Z,84
2017-10-25T07:17:29.106Z,84
2017-10-25T07:18:29.718Z,84
2017-10-25T07:19:30.331Z,84
2017-10-25T07:20:30.948Z,84
2017-10-25T07:21:31.558Z,84
2017-10-25T07:22:32.178Z,80
2017-10-25T07:23:32.820Z,80
2017-10-25T07:24:33.461Z,76
2017-10-25T07:25:34.071Z,76
2017-10-25T07:26:34.690Z,72
2017-10-25T07:27:35.298Z,68
2017-10-25T07:28:35.913Z,68
2017-10-25T07:29:36.524Z,64
2017-10-25T07:30:37.169Z,64
2017-10-25T07:31:37.782Z,64
2017-10-25T07:32:38.399Z,64
2017-10-25T07:33:39.043Z,64
2017-10-25T07:34:39.657Z,64
2017-10-25T07:35:40.267Z,64
2017-10-25T07:36:40.907Z,64
2017-10-25T07:37:41.551Z,64
2017-10-25T07:38:42.161Z,60
2017-10-25T07:39:42.775Z,60
2017-10-25T07:40:43.387Z,60
2017-10-25T07:41:43.999Z,60
2017-10-25T07:42:44.616Z,68
2017-10-25T07:43:45.226Z,84
2017-10-25T07:44:45.839Z,92
2017-10-25T07:45:46.461Z,108
2017-10-25T07:46:47.068Z,116
2017-10-25T07:47:47.689Z,128
2017-10-25T07:48:48.301Z,124
2017-10-25T07:49:48.917Z,108
2017-10-25T07:50:49.532Z,108
2017-10-25T07:51:50.144Z,128
2017-10-25T07:52:50.760Z,132
2017-10-25T07:53:51.374Z,132
2017-10-25T07:54:51.988Z,140
2017-10-25T07:55:52.604Z,148
2017-10-25T07:56:53.219Z,152
2017-10-25T07:57:53.832Z,152
2017-10-25T07:58:54.449Z,156
2017-10-25T07:59:55.062Z,156
2017-10-25T08:00:55.676Z,156
2017-10-25T08:01:56.291Z,156
2017-10-25T08:02:56.907Z,160
2017-10-25T08:03:57.522Z,164
2017-10-25T08:04:58.141Z,164
2017-10-25T08:05:58.752Z,168
2017-10-25T08:06:59.376Z,168
2017-10-25T08:07:59.986Z,172
2017-10-25T08:09:00.602Z,172
2017-10-25T08:10:01.215Z,176
2017-10-25T08:11:01.834Z,176
2017-10-25T08:12:02.452Z,176
2017-10-25T08:13:03.063Z,180
2017-10-25T08:14:03.695Z,180
2017-10-25T08:15:04.305Z,184
2017-10-25T08:16:04.916Z,188
2017-10-25T08:17:05.543Z,184
2017-10-25T08:18:06.199Z,192
2017-10-25T08:19:06.831Z,196
2017-10-25T08:20:07.473Z,192
2017-10-25T08:21:08.092Z,196
2017-10-25T08:22:08.781Z,200
2017-10-25T08:23:09.412Z,200
2017-10-25T08:24:10.049Z,204
2017-10-25T08:25:10.685Z,200
2017-10-25T08:26:11.284Z,200
2017-10-25T08:27:11.947Z,208
2017-10-25T08:28:12.564Z,208
2017-10-25T08:29:13.179Z,208
2017-10-25T08:30:13.795Z,216
2017-10-25T08:31:14.414Z,220
2017-10-25T08:32:15.025Z,224
2017-10-25T08:33:15.648Z,224
2017-10-25T08:34:16.266Z,224
2017-10-25T08:35:16.885Z,228
2017-10-25T08:36:17.547Z,232
2017-10-25T08:37:18.153Z,232
2017-10-25T08:38:18.771Z,236
2017-10-25T08:39:19.385Z,236
2017-10-25T08:40:20.014Z,240
2017-10-25T08:41:20.653Z,244
2017-10-25T08:42:21.276Z,248
2017-10-25T08:43:21.926Z,252
2017-10-25T08:44:22.571Z,252
2017-10-25T08:45:23.188Z,256
2017-10-25T08:46:23.834Z,260
2017-10-25T08:47:24.453Z,264
2017-10-25T08:48:25.107Z,264
2017-10-25T08:49:25.720Z,272
2017-10-25T08:50:26.342Z,276
2017-10-25T08:51:26.954Z,276
2017-10-25T08:52:27.575Z,280
2017-10-25T08:53:28.194Z,284
2017-10-25T08:54:28.812Z,292
2017-10-25T08:55:29.426Z,296
2017-10-25T08:56:30.041Z,304
2017-10-25T08:57:30.657Z,312
2017-10-25T08:58:31.275Z,320
2017-10-25T08:59:31.892Z,324
2017-10-25T09:00:32.512Z,332
2017-10-25T09:01:33.173Z,336
2017-10-25T09:02:33.895Z,340
2017-10-25T09:03:34.565Z,348
2017-10-25T09:04:35.228Z,352
2017-10-25T09:05:35.931Z,360
2017-10-25T09:06:36.594Z,368
2017-10-25T09:07:37.256Z,380
2017-10-25T09:08:37.907Z,388
2017-10-25T09:09:38.638Z,400
2017-10-25T09:10:39.303Z,412
2017-10-25T09:11:39.976Z,424
2017-10-25T09:12:40.635Z,440
2017-10-25T09:13:41.296Z,460
2017-10-25T09:14:41.949Z,472
2017-10-25T09:15:42.574Z,492
2017-10-25T09:16:43.190Z,508
2017-10-25T09:17:43.838Z,520
2017-10-25T09:18:44.457Z,532
2017-10-25T09:19:45.073Z,544
2017-10-25T09:20:45.694Z,556
2017-10-25T09:21:46.322Z,564
2017-10-25T09:22:46.969Z,576
2017-10-25T09:23:47.583Z,588
2017-10-25T09:24:48.201Z,600
2017-10-25T09:25:48.816Z,612
2017-10-25T09:26:49.438Z,616
2017-10-25T09:27:50.054Z,628
2017-10-25T09:28:50.670Z,636
2017-10-25T09:29:51.321Z,648
2017-10-25T09:30:51.935Z,656
2017-10-25T09:31:52.554Z,664
2017-10-25T09:32:53.169Z,676
2017-10-25T09:33:53.787Z,688
2017-10-25T09:34:54.410Z,696
2017-10-25T09:35:55.025Z,700
2017-10-25T09:36:55.642Z,716
2017-10-25T09:37:56.260Z,728
2017-10-25T09:38:56.886Z,740
2017-10-25T09:39:57.496Z,732
2017-10-25T09:40:58.116Z,756
2017-10-25T09:41:58.734Z,720
2017-10-25T09:42:59.360Z,768
2017-10-25T09:43:59.969Z,784
2017-10-25T09:45:00.617Z,792
2017-10-25T09:46:01.236Z,800
2017-10-25T09:47:01.854Z,808
2017-10-25T09:48:02.473Z,816
2017-10-25T09:49:03.092Z,828
2017-10-25T09:50:03.711Z,840
2017-10-25T09:51:04.329Z,848
2017-10-25T09:52:04.946Z,840
2017-10-25T09:53:05.572Z,836
2017-10-25T09:54:06.187Z,848
2017-10-25T09:55:06.807Z,856
2017-10-25T09:56:07.424Z,884
2017-10-25T09:57:08.041Z,884
2017-10-25T09:58:08.664Z,892
2017-10-25T09:59:09.282Z,892
2017-10-25T10:00:09.899Z,908
2017-10-25T10:01:10.518Z,916
2017-10-25T10:02:11.191Z,920
2017-10-25T10:03:11.828Z,932
2017-10-25T10:04:12.483Z,940
2017-10-25T10:05:13.149Z,944
2017-10-25T10:06:13.809Z,948
2017-10-25T10:07:14.478Z,960
2017-10-25T10:08:15.146Z,964
2017-10-25T10:09:15.817Z,972
2017-10-25T10:10:16.549Z,976
2017-10-25T10:11:17.201Z,984
2017-10-25T10:12:17.878Z,988
2017-10-25T10:13:18.544Z,996
2017-10-25T10:14:19.208Z,996
2017-10-25T10:15:19.875Z,1000
2017-10-25T10:16:20.534Z,1008
2017-10-25T10:17:21.183Z,1008
2017-10-25T10:18:21.833Z,1008
2017-10-25T10:19:22.498Z,1020
2017-10-25T10:20:23.153Z,1024
2017-10-25T10:21:23.814Z,1028
2017-10-25T10:22:24.491Z,1032
2017-10-25T10:23:25.160Z,1036
2017-10-25T10:24:25.910Z,1044
2017-10-25T10:25:26.559Z,1040
2017-10-25T10:26:27.226Z,1052
2017-10-25T10:27:27.895Z,1060
2017-10-25T10:28:28.548Z,1060
2017-10-25T10:29:29.223Z,1064
2017-10-25T10:30:29.886Z,1064
2017-10-25T10:31:30.564Z,1068
2017-10-25T10:32:31.232Z,1072
2017-10-25T10:33:31.891Z,1064
2017-10-25T10:34:32.550Z,1076
2017-10-25T10:35:33.219Z,1080
2017-10-25T10:36:33.889Z,1076
2017-10-25T10:37:34.551Z,1084
2017-10-25T10:38:35.222Z,1080
2017-10-25T10:39:35.905Z,1092
2017-10-25T10:40:36.580Z,1092
2017-10-25T10:41:37.244Z,1076
2017-10-25T10:42:37.920Z,1084
2017-10-25T10:43:38.693Z,1096
2017-10-25T10:44:39.349Z,1072
2017-10-25T10:45:40.007Z,1108
2017-10-25T10:46:40.676Z,1104
2017-10-25T10:47:41.345Z,1116
2017-10-25T10:48:42.012Z,1124
2017-10-25T10:49:42.649Z,1120
2017-10-25T10:50:43.312Z,1124
2017-10-25T10:51:43.950Z,1016
2017-10-25T10:52:44.610Z,1092
2017-10-25T10:53:45.340Z,1084
2017-10-25T10:54:46.019Z,1120
2017-10-25T10:55:46.671Z,1116
2017-10-25T10:56:47.345Z,1128
2017-10-25T10:57:48.080Z,1124
2017-10-25T10:58:48.729Z,1148
2017-10-25T10:59:49.372Z,1116
2017-10-25T11:00:50.041Z,1144
2017-10-25T11:01:50.659Z,1132
2017-10-25T11:02:51.293Z,1172
2017-10-25T11:03:51.927Z,1168
2017-10-25T11:04:52.544Z,1084
2017-10-25T11:05:53.182Z,1124
2017-10-25T11:06:53.853Z,1108
2017-10-25T11:07:54.503Z,1148
2017-10-25T11:08:55.138Z,1148
2017-10-25T11:09:55.777Z,1036
2017-10-25T11:10:56.402Z,1036
2017-10-25T11:11:57.078Z,1112
2017-10-25T11:12:57.737Z,1136
2017-10-25T11:13:58.374Z,1148
2017-10-25T11:14:59.020Z,1120
2017-10-25T11:15:59.657Z,1128
2017-10-25T11:17:00.307Z,1084
2017-10-25T11:18:00.947Z,1120
2017-10-25T11:19:01.597Z,1152
2017-10-25T11:20:02.226Z,1184
2017-10-25T11:21:02.886Z,1180
2017-10-25T11:22:03.527Z,1176
2017-10-25T11:23:04.167Z,1184
2017-10-25T11:24:04.812Z,1176
2017-10-25T11:25:05.505Z,1180
2017-10-25T11:26:06.154Z,1068
2017-10-25T11:27:06.794Z,1092
2017-10-25T11:28:07.440Z,1132
2017-10-25T11:29:08.083Z,1140
2017-10-25T11:30:08.728Z,1064
2017-10-25T11:31:09.364Z,1168
2017-10-25T11:32:10.019Z,1144
2017-10-25T11:33:10.655Z,1124
2017-10-25T11:34:11.294Z,1156
2017-10-25T11:35:12.000Z,1152
2017-10-25T11:36:12.632Z,1072
2017-10-25T11:37:13.272Z,1124
2017-10-25T11:38:13.915Z,1172
2017-10-25T11:39:14.602Z,1176
2017-10-25T11:40:15.237Z,1152
2017-10-25T11:41:15.867Z,1136
2017-10-25T11:42:16.491Z,1136
2017-10-25T11:43:17.140Z,1156
2017-10-25T11:44:17.770Z,1164
2017-10-25T11:45:18.400Z,1172
2017-10-25T11:46:19.035Z,1168
2017-10-25T11:47:19.683Z,1164
2017-10-25T11:48:20.343Z,1132
2017-10-25T11:49:20.988Z,1164
2017-10-25T11:50:21.636Z,1144
2017-10-25T11:51:22.289Z,1148
2017-10-25T11:52:22.937Z,1164
2017-10-25T11:53:23.579Z,1144
2017-10-25T11:54:24.232Z,1184
2017-10-25T11:55:24.891Z,1116
2017-10-25T11:56:25.516Z,1152
2017-10-25T11:57:26.157Z,1168
2017-10-25T11:58:26.810Z,1148
2017-10-25T11:59:27.455Z,1144
2017-10-25T12:00:28.109Z,1184
2017-10-25T12:01:28.742Z,1208
2017-10-25T12:02:29.388Z,1220
2017-10-25T12:03:30.038Z,1220
2017-10-25T12:04:30.690Z,1164
2017-10-25T12:05:31.339Z,1164
2017-10-25T12:06:31.994Z,1180
2017-10-25T12:07:32.642Z,1144
2017-10-25T12:08:33.291Z,1124
2017-10-25T12:09:33.928Z,1208
2017-10-25T12:10:34.588Z,1172
2017-10-25T12:11:35.237Z,1156
2017-10-25T12:12:35.884Z,1160
2017-10-25T12:13:36.571Z,1184
2017-10-25T12:14:37.234Z,1200
2017-10-25T12:15:37.882Z,1156
2017-10-25T12:16:38.525Z,1088
2017-10-25T12:17:39.172Z,1056
2017-10-25T12:18:39.828Z,1008
2017-10-25T12:19:40.474Z,1096
2017-10-25T12:20:41.109Z,1132
2017-10-25T12:21:41.761Z,1236
2017-10-25T12:22:42.394Z,1244
2017-10-25T12:23:43.053Z,1212
2017-10-25T12:24:43.686Z,1172
2017-10-25T12:25:44.321Z,1204
2017-10-25T12:26:44.972Z,1216
2017-10-25T12:27:45.626Z,1200
2017-10-25T12:28:46.277Z,1212
2017-10-25T12:29:46.924Z,1232
2017-10-25T12:30:47.578Z,1228
2017-10-25T12:31:48.228Z,1240
2017-10-25T12:32:48.862Z,1280
2017-10-25T12:33:49.517Z,1292
2017-10-25T12:34:50.161Z,1264
2017-10-25T12:35:50.819Z,1216
2017-10-25T12:36:51.466Z,1172
2017-10-25T12:37:52.177Z,1132
2017-10-25T12:38:52.840Z,1096
2017-10-25T12:39:53.524Z,1256
2017-10-25T12:40:54.165Z,1264
2017-10-25T12:41:54.823Z,1276
2017-10-25T12:42:55.477Z,1260
2017-10-25T12:43:56.126Z,1192
2017-10-25T12:44:56.768Z,1136
2017-10-25T12:45:57.422Z,1144
2017-10-25T12:46:58.066Z,1132
2017-10-25T12:47:58.726Z,1152
2017-10-25T12:48:59.354Z,1180
2017-10-25T12:50:00.001Z,1264
2017-10-25T12:51:00.664Z,1244
2017-10-25T12:52:01.305Z,1244
2017-10-25T12:53:01.960Z,1280
2017-10-25T12:54:02.602Z,1280
2017-10-25T12:55:03.252Z,1248
2017-10-25T12:56:03.960Z,1288
2017-10-25T12:57:04.608Z,1276
2017-10-25T12:58:05.261Z,1268
2017-10-25T12:59:05.905Z,1248
2017-10-25T13:00:06.564Z,1236
2017-10-25T13:01:07.214Z,1192
2017-10-25T13:02:07.847Z,1088
2017-10-25T13:03:08.505Z,1180
2017-10-25T13:04:09.153Z,1296
2017-10-25T13:05:09.801Z,1328
2017-10-25T13:06:10.441Z,1264
2017-10-25T13:07:11.140Z,1272
2017-10-25T13:08:11.797Z,1248
2017-10-25T13:09:12.492Z,1204
2017-10-25T13:10:13.177Z,1124
2017-10-25T13:11:13.810Z,1156
2017-10-25T13:12:14.436Z,1036
2017-10-25T13:13:15.060Z,1164
2017-10-25T13:14:15.685Z,1184
2017-10-25T13:15:16.313Z,1224
2017-10-25T13:16:16.935Z,1284
2017-10-25T13:17:17.592Z,1276
2017-10-25T13:18:18.218Z,1284
2017-10-25T13:19:18.842Z,1276
2017-10-25T13:20:19.468Z,1260
2017-10-25T13:21:20.128Z,1200
2017-10-25T13:22:20.749Z,1232
2017-10-25T13:23:21.372Z,1240
2017-10-25T13:24:22.028Z,1264
2017-10-25T13:25:22.657Z,1280
2017-10-25T13:26:23.316Z,1292
2017-10-25T13:27:23.941Z,1300
2017-10-25T13:28:24.630Z,1296
2017-10-25T13:29:25.281Z,1252
2017-10-25T13:30:25.937Z,1300
2017-10-25T13:31:26.576Z,1240
2017-10-25T13:32:27.228Z,1232
2017-10-25T13:33:27.898Z,1168
2017-10-25T13:34:28.532Z,1256
2017-10-25T13:35:29.158Z,1268
2017-10-25T13:36:29.782Z,1284
2017-10-25T13:37:30.410Z,1272
2017-10-25T13:38:31.032Z,1268
2017-10-25T13:39:31.656Z,1304
2017-10-25T13:40:32.281Z,1280
2017-10-25T13:41:32.909Z,1308
2017-10-25T13:42:33.534Z,1264
2017-10-25T13:43:34.154Z,1260
2017-10-25T13:44:34.779Z,1288
2017-10-25T13:45:35.404Z,1172
2017-10-25T13:46:36.031Z,1240
2017-10-25T13:47:36.653Z,1220
2017-10-25T13:48:37.307Z,1260
2017-10-25T13:49:37.935Z,1276
2017-10-25T13:50:38.606Z,1268
2017-10-25T13:51:39.229Z,1292
2017-10-25T13:52:39.859Z,1288
2017-10-25T13:53:40.481Z,1304
2017-10-25T13:54:41.107Z,1312
2017-10-25T13:55:41.758Z,1304
2017-10-25T13:56:42.384Z,1224
2017-10-25T13:57:43.015Z,1304
2017-10-25T13:58:43.648Z,1296
2017-10-25T13:59:44.261Z,1268
2017-10-25T14:00:44.890Z,1232
2017-10-25T14:01:45.519Z,1148
2017-10-25T14:02:46.139Z,1100
2017-10-25T14:03:46.795Z,1120
2017-10-25T14:04:47.420Z,1216
2017-10-25T14:05:48.095Z,1168
2017-10-25T14:06:48.720Z,1204
2017-10-25T14:07:49.350Z,1132
2017-10-25T14:08:49.978Z,1060
2017-10-25T14:09:50.601Z,1164
2017-10-25T14:10:51.225Z,1160
2017-10-25T14:11:51.852Z,1068
2017-10-25T14:12:52.478Z,1116
2017-10-25T14:13:53.103Z,1112
2017-10-25T14:14:53.734Z,1132